Station History

Weather Underground - logo

Station Historical Data
Daily Summary for October 19, 2017 Units:  English    Metric   Both
« Previous Day
Next Day »
Daily Weekly Monthly Yearly Custom
  High: Low: Average:
Temperature: 80.2 °F 48.6 °F 63.3 °F
Dew Point: 52.5 °F 41.6 °F 47.3 °F
Humidity: 84 % 26 % 60 %
Wind Speed: 6.9 mph 0.0 mph 0.7 mph
Wind Gust: 6.9 mph - -
Wind:- - South
Pressure: 29.96 in 29.81 in -
Precipitation: 0.00 in    
Historical Graphs
 
 
Tabular Data for October 19, 2017
Time Temperature Dew Point Pressure Wind Wind Speed Wind Gust Humidity Rainfall Rate (Hourly)
00:03 56.0 °F 49.6 °F 29.92 in Calm     79 % 0.00 in
00:08 56.1 °F 49.7 °F 29.92 in Calm     79 % 0.00 in
00:13 56.1 °F 49.7 °F 29.92 in Calm     79 % 0.00 in
00:18 55.9 °F 49.8 °F 29.92 in Calm     80 % 0.00 in
00:23 55.9 °F 49.1 °F 29.92 in Calm     78 % 0.00 in
00:29 55.9 °F 49.8 °F 29.92 in Calm     80 % 0.00 in
00:34 55.6 °F 49.5 °F 29.92 in Calm     80 % 0.00 in
00:39 55.0 °F 49.3 °F 29.92 in Calm     81 % 0.00 in
00:44 54.6 °F 49.5 °F 29.92 in Calm     83 % 0.00 in
00:49 54.6 °F 49.5 °F 29.92 in Calm     83 % 0.00 in
00:54 54.8 °F 49.7 °F 29.92 in Calm     83 % 0.00 in
00:59 55.0 °F 49.6 °F 29.92 in Calm     82 % 0.00 in
01:04 55.0 °F 48.9 °F 29.92 in Calm     80 % 0.00 in
01:09 55.1 °F 48.7 °F 29.92 in Calm     79 % 0.00 in
01:14 55.2 °F 48.1 °F 29.92 in Calm     77 % 0.00 in
01:19 55.7 °F 48.2 °F 29.92 in Calm     76 % 0.00 in
01:24 55.7 °F 49.6 °F 29.92 in Calm     80 % 0.00 in
01:29 55.5 °F 48.8 °F 29.92 in Calm     78 % 0.00 in
01:34 55.3 °F 49.2 °F 29.92 in Calm     80 % 0.00 in
01:39 54.7 °F 49.0 °F 29.92 in Calm     81 % 0.00 in
01:44 54.5 °F 49.1 °F 29.92 in Calm     82 % 0.00 in
01:49 54.5 °F 49.1 °F 29.93 in Calm     82 % 0.00 in
01:54 54.6 °F 48.9 °F 29.93 in Calm     81 % 0.00 in
01:59 54.6 °F 47.9 °F 29.92 in Calm     78 % 0.00 in
02:04 54.6 °F 48.2 °F 29.92 in Calm     79 % 0.00 in
02:09 54.9 °F 47.8 °F 29.92 in Calm     77 % 0.00 in
02:14 54.9 °F 47.8 °F 29.92 in Calm     77 % 0.00 in
02:19 55.0 °F 48.6 °F 29.92 in Calm     79 % 0.00 in
02:24 54.9 °F 48.8 °F 29.92 in Calm     80 % 0.00 in
02:29 54.5 °F 48.5 °F 29.92 in Calm     80 % 0.00 in
02:34 54.0 °F 48.6 °F 29.91 in Calm     82 % 0.00 in
02:39 53.9 °F 48.5 °F 29.91 in Calm     82 % 0.00 in
02:44 54.0 °F 48.3 °F 29.91 in Calm     81 % 0.00 in
02:49 53.6 °F 47.9 °F 29.91 in Calm     81 % 0.00 in
02:54 53.2 °F 47.5 °F 29.91 in Calm     81 % 0.00 in
02:59 52.8 °F 47.5 °F 29.91 in Calm     82 % 0.00 in
03:04 52.6 °F 47.3 °F 29.91 in Calm     82 % 0.00 in
03:09 52.8 °F 47.1 °F 29.91 in Calm     81 % 0.00 in
03:14 52.9 °F 46.9 °F 29.90 in Calm     80 % 0.00 in
03:19 52.9 °F 46.9 °F 29.90 in Calm     80 % 0.00 in
03:24 52.9 °F 47.2 °F 29.90 in Calm     81 % 0.00 in
03:30 52.7 °F 47.4 °F 29.90 in Calm     82 % 0.00 in
03:35 52.4 °F 47.4 °F 29.90 in Calm     83 % 0.00 in
03:40 52.2 °F 47.2 °F 29.90 in Calm     83 % 0.00 in
03:45 51.9 °F 46.9 °F 29.90 in Calm     83 % 0.00 in
03:50 51.4 °F 46.4 °F 29.90 in Calm     83 % 0.00 in
03:55 51.1 °F 46.1 °F 29.90 in Calm     83 % 0.00 in
04:00 50.8 °F 45.8 °F 29.90 in SSW 1.2 mph 1.2 mph 83 % 0.00 in
04:05 50.5 °F 45.8 °F 29.90 in Calm     84 % 0.00 in
04:10 50.6 °F 45.9 °F 29.89 in Calm     84 % 0.00 in
04:15 50.7 °F 46.0 °F 29.89 in Calm     84 % 0.00 in
04:20 50.8 °F 46.1 °F 29.89 in Calm     84 % 0.00 in
04:25 50.7 °F 46.0 °F 29.90 in Calm     84 % 0.00 in
04:30 50.6 °F 45.9 °F 29.90 in Calm     84 % 0.00 in
04:35 50.8 °F 45.8 °F 29.90 in SSW 1.2 mph 1.2 mph 83 % 0.00 in
04:40 51.0 °F 46.0 °F 29.90 in Calm     83 % 0.00 in
04:45 51.3 °F 46.0 °F 29.90 in Calm     82 % 0.00 in
04:50 51.3 °F 46.0 °F 29.90 in Calm     82 % 0.00 in
04:55 51.2 °F 45.9 °F 29.90 in Calm     82 % 0.00 in
05:00 51.6 °F 46.0 °F 29.90 in South 1.2 mph   81 % 0.00 in
05:05 51.8 °F 45.8 °F 29.90 in Calm     80 % 0.00 in
05:10 52.0 °F 46.0 °F 29.90 in Calm     80 % 0.00 in
05:15 51.9 °F 45.6 °F 29.91 in Calm     79 % 0.00 in
05:20 51.8 °F 46.2 °F 29.91 in Calm     81 % 0.00 in
05:25 51.5 °F 45.9 °F 29.91 in Calm     81 % 0.00 in
05:30 51.2 °F 45.6 °F 29.91 in Calm     81 % 0.00 in
05:35 50.9 °F 45.9 °F 29.92 in Calm     83 % 0.00 in
05:40 50.4 °F 45.4 °F 29.92 in Calm     83 % 0.00 in
05:45 50.1 °F 45.5 °F 29.92 in Calm     84 % 0.00 in
05:50 49.8 °F 45.2 °F 29.93 in Calm     84 % 0.00 in
05:55 49.7 °F 45.1 °F 29.93 in Calm     84 % 0.00 in
06:00 49.5 °F 44.9 °F 29.93 in Calm     84 % 0.00 in
06:05 49.3 °F 44.7 °F 29.93 in Calm     84 % 0.00 in
06:10 49.2 °F 44.6 °F 29.93 in Calm     84 % 0.00 in
06:15 49.2 °F 44.6 °F 29.93 in Calm     84 % 0.00 in
06:20 49.3 °F 44.4 °F 29.94 in Calm     83 % 0.00 in
06:25 49.3 °F 44.4 °F 29.94 in Calm     83 % 0.00 in
06:30 49.2 °F 44.3 °F 29.94 in Calm     83 % 0.00 in
06:35 49.0 °F 44.1 °F 29.94 in Calm     83 % 0.00 in
06:40 48.8 °F 43.9 °F 29.94 in Calm     83 % 0.00 in
06:46 48.6 °F 44.0 °F 29.94 in Calm     84 % 0.00 in
06:51 48.9 °F 44.0 °F 29.94 in Calm     83 % 0.00 in
06:56 49.5 °F 44.2 °F 29.93 in Calm     82 % 0.00 in
07:01 49.9 °F 44.0 °F 29.93 in Calm     80 % 0.00 in
07:06 50.3 °F 44.0 °F 29.93 in Calm     79 % 0.00 in
07:11 50.6 °F 44.0 °F 29.94 in Calm     78 % 0.00 in
07:16 50.9 °F 43.9 °F 29.94 in Calm     77 % 0.00 in
07:21 51.1 °F 44.1 °F 29.94 in Calm     77 % 0.00 in
07:26 50.9 °F 44.3 °F 29.94 in Calm     78 % 0.00 in
07:31 50.2 °F 44.3 °F 29.95 in Calm     80 % 0.00 in
07:37 49.9 °F 44.3 °F 29.95 in Calm     81 % 0.00 in
07:42 49.8 °F 44.5 °F 29.95 in Calm     82 % 0.00 in
07:47 49.8 °F 44.5 °F 29.95 in Calm     82 % 0.00 in
07:52 50.1 °F 44.8 °F 29.95 in Calm     82 % 0.00 in
07:57 50.4 °F 44.8 °F 29.95 in Calm     81 % 0.00 in
08:02 50.8 °F 44.5 °F 29.94 in Calm     79 % 0.00 in
08:07 51.7 °F 44.7 °F 29.95 in Calm     77 % 0.00 in
08:12 52.7 °F 45.0 °F 29.95 in Calm     75 % 0.00 in
08:17 53.9 °F 45.1 °F 29.95 in Calm     72 % 0.00 in
08:22 55.1 °F 45.9 °F 29.95 in Calm     71 % 0.00 in
08:27 56.1 °F 46.4 °F 29.95 in Calm     70 % 0.00 in
08:32 56.6 °F 46.5 °F 29.95 in Calm     69 % 0.00 in
08:37 57.1 °F 46.6 °F 29.95 in Calm     68 % 0.00 in
08:42 57.5 °F 47.0 °F 29.95 in Calm     68 % 0.00 in
08:47 58.4 °F 46.7 °F 29.95 in Calm     65 % 0.00 in
08:52 59.7 °F 47.9 °F 29.95 in Calm     65 % 0.00 in
08:57 61.1 °F 48.0 °F 29.95 in Calm     62 % 0.00 in
09:02 61.8 °F 47.3 °F 29.95 in SSE 1.2 mph 1.2 mph 59 % 0.00 in
09:07 62.3 °F 46.9 °F 29.95 in ESE 3.0 mph 3.0 mph 57 % 0.00 in
09:12 62.3 °F 46.9 °F 29.95 in South 1.2 mph 1.2 mph 57 % 0.00 in
09:17 62.4 °F 47.0 °F 29.96 in SE 1.2 mph 1.2 mph 57 % 0.00 in
09:22 63.0 °F 47.1 °F 29.96 in SSE 2.3 mph 2.3 mph 56 % 0.00 in
09:27 63.8 °F 47.8 °F 29.96 in Calm     56 % 0.00 in
09:32 64.5 °F 47.5 °F 29.95 in SSE 1.2 mph 1.2 mph 54 % 0.00 in
09:37 64.9 °F 46.8 °F 29.95 in SE 2.3 mph 2.3 mph 52 % 0.00 in
09:42 65.0 °F 47.4 °F 29.95 in SSE 2.3 mph 2.3 mph 53 % 0.00 in
09:47 65.1 °F 47.5 °F 29.95 in SSE 2.0 mph 2.0 mph 53 % 0.00 in
09:52 65.3 °F 47.7 °F 29.96 in SSE 4.6 mph 4.6 mph 53 % 0.00 in
09:57 65.3 °F 48.2 °F 29.96 in SSW 1.2 mph   54 % 0.00 in
10:02 65.6 °F 47.5 °F 29.95 in ENE 3.5 mph 3.5 mph 52 % 0.00 in
10:07 65.8 °F 48.7 °F 29.95 in East 2.0 mph 2.0 mph 54 % 0.00 in
10:12 66.2 °F 48.0 °F 29.95 in South 3.0 mph 3.0 mph 52 % 0.00 in
10:17 66.7 °F 48.5 °F 29.95 in South 2.3 mph 2.3 mph 52 % 0.00 in
10:22 67.2 °F 48.5 °F 29.95 in Calm   0.2 mph 51 % 0.00 in
10:27 67.8 °F 49.0 °F 29.95 in NE 2.3 mph 2.3 mph 51 % 0.00 in
10:32 68.3 °F 47.8 °F 29.95 in South 6.9 mph 6.9 mph 48 % 0.00 in
10:37 68.6 °F 48.1 °F 29.95 in South 5.8 mph 5.8 mph 48 % 0.00 in
10:42 69.0 °F 47.9 °F 29.94 in North 3.5 mph 3.5 mph 47 % 0.00 in
10:47 69.4 °F 47.7 °F 29.95 in SSE 5.8 mph 5.8 mph 46 % 0.00 in
10:52 69.7 °F 48.6 °F 29.95 in SE 3.5 mph 3.5 mph 47 % 0.00 in
10:57 70.2 °F 48.4 °F 29.95 in ESE 5.0 mph 5.0 mph 46 % 0.00 in
11:00 70.5 °F 48.1 °F 29.95 in NE 3.5 mph 3.5 mph 45 % 0.00 in
11:05 71.2 °F 48.8 °F 29.95 in East 3.5 mph 3.5 mph 45 % 0.00 in
11:10 71.4 °F 48.9 °F 29.95 in South 2.3 mph 2.3 mph 45 % 0.00 in
11:15 72.2 °F 49.7 °F 29.95 in East 2.0 mph 2.0 mph 45 % 0.00 in
11:20 72.7 °F 48.9 °F 29.94 in South 3.5 mph 3.5 mph 43 % 0.00 in
11:25 72.8 °F 49.0 °F 29.94 in South 2.0 mph 2.0 mph 43 % 0.00 in
11:30 73.4 °F 48.3 °F 29.94 in ESE 4.6 mph 4.6 mph 41 % 0.00 in
11:35 73.6 °F 48.4 °F 29.94 in ENE 2.3 mph 2.3 mph 41 % 0.00 in
11:40 74.0 °F 49.4 °F 29.94 in East 2.3 mph 2.3 mph 42 % 0.00 in
11:45 74.5 °F 49.2 °F 29.94 in ENE 3.5 mph 3.5 mph 41 % 0.00 in
11:50 74.7 °F 47.4 °F 29.94 in SE 2.3 mph 2.3 mph 38 % 0.00 in
11:55 75.1 °F 47.8 °F 29.93 in East 3.5 mph 3.5 mph 38 % 0.00 in
12:00 75.4 °F 48.0 °F 29.93 in NNE 1.2 mph 1.2 mph 38 % 0.00 in
12:05 75.6 °F 48.9 °F 29.93 in South 2.3 mph 2.3 mph 39 % 0.00 in
12:10 75.4 °F 47.3 °F 29.93 in WNW 3.5 mph 3.5 mph 37 % 0.00 in
12:15 75.4 °F 47.3 °F 29.93 in West 2.0 mph 2.0 mph 37 % 0.00 in
12:20 75.6 °F 46.8 °F 29.92 in ESE 3.5 mph 3.5 mph 36 % 0.00 in
12:25 76.0 °F 46.4 °F 29.92 in ESE 2.3 mph 2.3 mph 35 % 0.00 in
12:30 76.2 °F 46.5 °F 29.92 in NW 2.3 mph 2.3 mph 35 % 0.00 in
12:35 75.9 °F 47.0 °F 29.92 in SW 3.5 mph 3.5 mph 36 % 0.00 in
12:40 75.8 °F 46.9 °F 29.92 in South 2.3 mph 2.3 mph 36 % 0.00 in
12:45 76.3 °F 47.4 °F 29.91 in East 3.5 mph 3.5 mph 36 % 0.00 in
12:50 76.8 °F 47.8 °F 29.91 in East 1.0 mph   36 % 0.00 in
12:55 76.9 °F 46.4 °F 29.91 in West 2.3 mph 2.3 mph 34 % 0.00 in
13:00 77.0 °F 47.2 °F 29.91 in North 2.3 mph 2.3 mph 35 % 0.00 in
13:05 77.5 °F 46.9 °F 29.91 in NW 2.3 mph 2.3 mph 34 % 0.00 in
13:10 77.6 °F 45.4 °F 29.90 in West 3.5 mph 3.5 mph 32 % 0.00 in
13:15 78.1 °F 46.6 °F 29.90 in ENE 2.3 mph 2.3 mph 33 % 0.00 in
13:20 78.8 °F 48.1 °F 29.90 in SSE 3.5 mph 3.5 mph 34 % 0.00 in
13:25 79.2 °F 46.8 °F 29.90 in WNW 2.3 mph 2.3 mph 32 % 0.00 in
13:30 78.9 °F 45.7 °F 29.90 in SSE 2.0 mph 2.0 mph 31 % 0.00 in
13:35 79.2 °F 49.2 °F 29.89 in SW 1.0 mph 1.0 mph 35 % 0.00 in
13:40 79.3 °F 45.2 °F 29.89 in NNW 3.5 mph 3.5 mph 30 % 0.00 in
13:45 78.8 °F 45.6 °F 29.89 in West 1.2 mph 1.2 mph 31 % 0.00 in
13:46 78.8 °F 48.1 °F 29.89 in East 1.2 mph 1.2 mph 34 % 0.00 in
13:51 79.0 °F 43.1 °F 29.88 in Calm     28 % 0.00 in
13:56 78.7 °F 44.7 °F 29.88 in WNW 1.2 mph 1.2 mph 30 % 0.00 in
14:01 78.8 °F 44.7 °F 29.88 in West 1.2 mph 1.2 mph 30 % 0.00 in
14:06 79.1 °F 46.7 °F 29.88 in Calm     32 % 0.00 in
14:11 79.4 °F 44.4 °F 29.88 in Calm     29 % 0.00 in
14:16 79.7 °F 45.5 °F 29.87 in ESE 1.2 mph 1.2 mph 30 % 0.00 in
14:21 79.9 °F 46.6 °F 29.87 in Calm     31 % 0.00 in
14:26 79.8 °F 45.6 °F 29.87 in SE 2.3 mph 2.3 mph 30 % 0.00 in
14:31 80.1 °F 45.0 °F 29.86 in Calm     29 % 0.00 in
14:36 80.1 °F 46.7 °F 29.86 in NE 1.2 mph   31 % 0.00 in
14:41 80.2 °F 45.1 °F 29.86 in NNW 3.5 mph 3.5 mph 29 % 0.00 in
14:46 79.9 °F 43.9 °F 29.86 in WNW 2.3 mph 2.3 mph 28 % 0.00 in
14:51 79.5 °F 43.5 °F 29.86 in NW 3.5 mph 3.5 mph 28 % 0.00 in
14:56 79.2 °F 43.3 °F 29.86 in NW 1.2 mph 1.2 mph 28 % 0.00 in
15:01 79.4 °F 44.4 °F 29.86 in Calm     29 % 0.00 in
15:06 79.7 °F 44.6 °F 29.86 in NW 2.3 mph 2.3 mph 29 % 0.00 in
15:11 79.5 °F 41.6 °F 29.85 in West 2.3 mph 2.3 mph 26 % 0.00 in
15:16 79.4 °F 42.5 °F 29.86 in WNW 1.2 mph   27 % 0.00 in
15:21 79.3 °F 43.4 °F 29.85 in Calm     28 % 0.00 in
15:26 79.4 °F 43.4 °F 29.85 in West 1.2 mph 1.2 mph 28 % 0.00 in
15:31 80.0 °F 44.0 °F 29.85 in Calm     28 % 0.00 in
15:36 80.2 °F 43.2 °F 29.85 in NW 1.2 mph   27 % 0.00 in
15:41 80.0 °F 43.0 °F 29.85 in WNW 1.2 mph 1.2 mph 27 % 0.00 in
15:46 79.7 °F 45.5 °F 29.85 in SW 1.2 mph 1.2 mph 30 % 0.00 in
15:51 79.6 °F 44.5 °F 29.85 in NW 1.2 mph 1.2 mph 29 % 0.00 in
15:56 79.3 °F 43.4 °F 29.85 in West 1.2 mph   28 % 0.00 in
16:01 79.3 °F 44.3 °F 29.85 in NW 1.2 mph   29 % 0.00 in
16:06 79.1 °F 44.1 °F 29.85 in NNW 1.2 mph   29 % 0.00 in
16:11 79.0 °F 43.1 °F 29.85 in Calm     28 % 0.00 in
16:16 78.9 °F 43.9 °F 29.84 in Calm   0.1 mph 29 % 0.00 in
16:21 78.8 °F 43.8 °F 29.84 in NNW 1.2 mph 1.2 mph 29 % 0.00 in
16:26 78.6 °F 43.7 °F 29.84 in North 1.2 mph 1.2 mph 29 % 0.00 in
16:31 78.8 °F 43.8 °F 29.84 in NNW 1.2 mph 1.2 mph 29 % 0.00 in
16:36 78.7 °F 43.8 °F 29.83 in Calm     29 % 0.00 in
16:41 78.5 °F 42.7 °F 29.83 in Calm     28 % 0.00 in
16:47 78.3 °F 42.5 °F 29.83 in Calm     28 % 0.00 in
16:52 78.1 °F 45.0 °F 29.83 in Calm     31 % 0.00 in
16:57 77.9 °F 44.0 °F 29.83 in Calm     30 % 0.00 in
17:02 77.7 °F 45.5 °F 29.83 in Calm     32 % 0.00 in
17:07 77.5 °F 45.3 °F 29.83 in Calm     32 % 0.00 in
17:12 77.2 °F 45.0 °F 29.82 in Calm     32 % 0.00 in
17:17 76.9 °F 45.6 °F 29.82 in Calm     33 % 0.00 in
17:22 76.5 °F 46.8 °F 29.82 in Calm     35 % 0.00 in
17:27 76.1 °F 47.2 °F 29.82 in Calm     36 % 0.00 in
17:32 75.9 °F 47.8 °F 29.82 in Calm     37 % 0.00 in
17:37 75.3 °F 49.3 °F 29.82 in Calm     40 % 0.00 in
17:42 74.7 °F 49.4 °F 29.82 in Calm     41 % 0.00 in
17:47 74.1 °F 50.2 °F 29.81 in Calm     43 % 0.00 in
17:52 73.8 °F 48.6 °F 29.81 in Calm     41 % 0.00 in
17:57 73.5 °F 49.0 °F 29.81 in Calm     42 % 0.00 in
18:02 72.9 °F 49.7 °F 29.81 in Calm     44 % 0.00 in
18:07 72.2 °F 49.7 °F 29.81 in Calm     45 % 0.00 in
18:12 71.4 °F 50.1 °F 29.81 in Calm     47 % 0.00 in
18:17 70.5 °F 49.3 °F 29.81 in Calm     47 % 0.00 in
18:22 69.9 °F 49.3 °F 29.81 in Calm     48 % 0.00 in
18:27 69.3 °F 50.4 °F 29.81 in Calm     51 % 0.00 in
18:32 68.7 °F 50.9 °F 29.81 in Calm     53 % 0.00 in
18:37 67.9 °F 51.6 °F 29.81 in Calm     56 % 0.00 in
18:42 67.2 °F 50.5 °F 29.81 in Calm     55 % 0.00 in
18:47 66.7 °F 50.5 °F 29.81 in Calm     56 % 0.00 in
18:52 66.4 °F 50.7 °F 29.81 in Calm     57 % 0.00 in
18:58 66.3 °F 50.6 °F 29.81 in Calm     57 % 0.00 in
19:03 66.1 °F 50.9 °F 29.81 in Calm     58 % 0.00 in
19:08 65.5 °F 51.2 °F 29.81 in Calm     60 % 0.00 in
19:13 65.2 °F 51.4 °F 29.81 in Calm     61 % 0.00 in
19:18 65.0 °F 50.8 °F 29.82 in Calm     60 % 0.00 in
19:23 64.9 °F 50.7 °F 29.82 in Calm     60 % 0.00 in
19:28 64.6 °F 50.8 °F 29.82 in Calm     61 % 0.00 in
19:38 63.3 °F 50.5 °F 29.82 in Calm     63 % 0.00 in
19:43 63.1 °F 51.1 °F 29.82 in Calm     65 % 0.00 in
19:48 63.0 °F 51.0 °F 29.82 in Calm     65 % 0.00 in
19:53 63.1 °F 51.1 °F 29.82 in Calm     65 % 0.00 in
19:58 62.9 °F 51.0 °F 29.82 in Calm     65 % 0.00 in
20:03 62.8 °F 51.3 °F 29.83 in Calm     66 % 0.00 in
20:08 62.6 °F 51.9 °F 29.83 in Calm     68 % 0.00 in
20:13 62.4 °F 51.3 °F 29.83 in Calm     67 % 0.00 in
20:18 62.1 °F 51.4 °F 29.83 in Calm     68 % 0.00 in
20:21 61.9 °F 51.6 °F 29.83 in Calm     69 % 0.00 in
20:25 61.5 °F 50.8 °F 29.83 in Calm     68 % 0.00 in
20:30 61.4 °F 50.3 °F 29.83 in Calm     67 % 0.00 in
20:35 61.4 °F 50.3 °F 29.83 in Calm     67 % 0.00 in
20:40 61.6 °F 50.1 °F 29.83 in Calm     66 % 0.00 in
20:45 61.8 °F 49.9 °F 29.83 in Calm     65 % 0.00 in
20:50 61.8 °F 49.5 °F 29.83 in Calm     64 % 0.00 in
20:55 61.7 °F 48.5 °F 29.83 in Calm     62 % 0.00 in
21:00 61.6 °F 48.9 °F 29.83 in Calm     63 % 0.00 in
21:05 61.5 °F 48.8 °F 29.83 in Calm     63 % 0.00 in
21:10 61.4 °F 49.5 °F 29.84 in Calm     65 % 0.00 in
21:15 60.9 °F 50.7 °F 29.84 in Calm     69 % 0.00 in
21:21 60.1 °F 50.3 °F 29.83 in Calm     70 % 0.00 in
21:25 59.0 °F 49.2 °F 29.83 in Calm     70 % 0.00 in
21:30 58.6 °F 49.2 °F 29.83 in Calm     71 % 0.00 in
21:35 58.3 °F 49.3 °F 29.83 in Calm     72 % 0.00 in
21:41 58.0 °F 49.0 °F 29.83 in Calm     72 % 0.00 in
21:46 57.8 °F 49.6 °F 29.83 in Calm     74 % 0.00 in
21:51 57.8 °F 49.6 °F 29.83 in Calm     74 % 0.00 in
21:56 58.1 °F 49.9 °F 29.84 in Calm     74 % 0.00 in
22:01 57.8 °F 49.9 °F 29.84 in Calm     75 % 0.00 in
22:06 57.2 °F 49.3 °F 29.84 in Calm     75 % 0.00 in
22:11 56.6 °F 48.8 °F 29.85 in Calm     75 % 0.00 in
22:16 56.6 °F 48.8 °F 29.85 in Calm     75 % 0.00 in
22:21 56.7 °F 48.5 °F 29.85 in Calm     74 % 0.00 in
22:26 57.0 °F 48.4 °F 29.85 in WNW 1.2 mph 1.2 mph 73 % 0.00 in
22:31 57.3 °F 48.3 °F 29.85 in WNW 1.2 mph 1.2 mph 72 % 0.00 in
22:36 57.7 °F 48.0 °F 29.85 in Calm     70 % 0.00 in
22:41 57.9 °F 47.8 °F 29.86 in ESE 3.5 mph 3.5 mph 69 % 0.00 in
22:46 57.8 °F 47.3 °F 29.85 in East 1.2 mph   68 % 0.00 in
22:51 57.9 °F 47.0 °F 29.85 in ESE 1.2 mph 1.2 mph 67 % 0.00 in
22:52 57.9 °F 47.0 °F 29.85 in ESE 1.2 mph 1.2 mph 67 % 0.00 in
22:57 58.2 °F 46.9 °F 29.85 in East 1.0 mph 1.0 mph 66 % 0.00 in
23:02 58.1 °F 47.2 °F 29.85 in Calm     67 % 0.00 in
23:07 58.0 °F 46.3 °F 29.86 in Calm     65 % 0.00 in
23:12 58.0 °F 46.7 °F 29.86 in Calm     66 % 0.00 in
23:17 57.6 °F 47.1 °F 29.86 in Calm     68 % 0.00 in
23:22 57.2 °F 46.7 °F 29.87 in Calm     68 % 0.00 in
23:27 57.0 °F 46.5 °F 29.87 in Calm     68 % 0.00 in
23:32 57.4 °F 48.1 °F 29.87 in Calm     71 % 0.00 in
23:37 57.8 °F 49.2 °F 29.88 in Calm     73 % 0.00 in
23:42 58.1 °F 49.9 °F 29.88 in North 1.2 mph   74 % 0.00 in
23:52 60.3 °F 52.0 °F 29.89 in NW 1.2 mph 1.2 mph 74 % 0.00 in
23:57 60.8 °F 52.5 °F 29.89 in NNE 3.5 mph 3.5 mph 74 % 0.00 in
Park Place, Exeter, Tulare County, California, USA
Compliments of Weather Underground - 2.75 mb